createdAt,value
2017-12-01T00:00:26.834Z,59.34
2017-12-01T00:02:52.754Z,60.18
2017-12-01T00:05:18.696Z,60.66
2017-12-01T00:07:44.643Z,60.40
2017-12-01T00:10:10.570Z,60.91
2017-12-01T00:12:36.494Z,60.55
2017-12-01T00:15:02.434Z,60.57
2017-12-01T00:17:28.373Z,59.90
2017-12-01T00:19:54.295Z,60.12
2017-12-01T00:22:20.220Z,60.49
2017-12-01T00:24:46.172Z,60.73
2017-12-01T00:27:12.104Z,61.88
2017-12-01T00:29:38.036Z,62.25
2017-12-01T00:32:03.972Z,61.44
2017-12-01T00:34:29.897Z,61.24
2017-12-01T00:36:55.828Z,62.62
2017-12-01T00:39:21.751Z,62.54
2017-12-01T00:41:47.682Z,62.88
2017-12-01T00:44:13.638Z,61.81
2017-12-01T00:46:39.559Z,62.75
2017-12-01T00:49:05.489Z,62.18
2017-12-01T00:51:31.422Z,62.24
2017-12-01T00:53:57.346Z,62.40
2017-12-01T00:56:23.280Z,61.86
2017-12-01T00:58:49.531Z,61.69
2017-12-01T01:01:15.453Z,60.58
2017-12-01T01:03:41.373Z,61.99
2017-12-01T01:06:07.296Z,62.31
2017-12-01T01:08:33.227Z,61.88
2017-12-01T01:10:59.170Z,62.08
2017-12-01T01:13:25.109Z,61.91
2017-12-01T01:15:51.050Z,62.83
2017-12-01T01:18:16.972Z,63.28
2017-12-01T01:20:42.917Z,63.05
2017-12-01T01:23:08.870Z,63.07
2017-12-01T01:25:34.814Z,62.95
2017-12-01T01:28:00.762Z,62.56
2017-12-01T01:30:26.695Z,62.66
2017-12-01T01:32:52.621Z,63.49
2017-12-01T01:35:18.554Z,62.10
2017-12-01T01:37:44.475Z,62.96
2017-12-01T01:40:10.388Z,63.55
2017-12-01T01:42:36.326Z,63.00
2017-12-01T01:45:02.258Z,62.95
2017-12-01T01:47:28.210Z,63.17
2017-12-01T01:49:54.144Z,62.83
2017-12-01T01:52:20.060Z,62.72
2017-12-01T01:54:45.983Z,62.04
2017-12-01T01:57:11.907Z,61.52
2017-12-01T01:59:37.827Z,62.16
2017-12-01T02:02:03.804Z,62.70
2017-12-01T02:04:29.741Z,61.20
2017-12-01T02:06:55.661Z,60.51
2017-12-01T02:09:21.583Z,61.60
2017-12-01T02:11:47.503Z,62.89
2017-12-01T02:14:13.425Z,62.87
2017-12-01T02:16:39.358Z,61.78
2017-12-01T02:19:05.297Z,62.92
2017-12-01T02:21:31.232Z,62.15
2017-12-01T02:23:57.169Z,62.43
2017-12-01T02:26:23.106Z,62.79
2017-12-01T02:28:49.021Z,63.40
2017-12-01T02:31:14.948Z,63.19
2017-12-01T02:33:40.911Z,63.49
2017-12-01T02:36:06.879Z,62.58
2017-12-01T02:38:32.812Z,62.58
2017-12-01T02:40:58.738Z,63.09
2017-12-01T02:43:24.701Z,62.52
2017-12-01T02:45:50.621Z,62.48
2017-12-01T02:48:16.559Z,63.48
2017-12-01T02:50:42.482Z,63.22
2017-12-01T02:53:08.416Z,63.14
2017-12-01T02:55:34.351Z,63.41
2017-12-01T02:58:00.269Z,63.10
2017-12-01T03:00:26.215Z,62.80
2017-12-01T03:02:52.137Z,62.90
2017-12-01T03:05:18.068Z,62.30
2017-12-01T03:07:44.009Z,62.35
2017-12-01T03:10:09.939Z,61.71
2017-12-01T03:12:35.903Z,63.08
2017-12-01T03:15:01.830Z,63.15
2017-12-01T03:17:27.753Z,63.04
2017-12-01T03:19:53.677Z,62.47
2017-12-01T03:22:19.635Z,62.82
2017-12-01T03:24:45.557Z,62.60
2017-12-01T03:27:11.475Z,62.60
2017-12-01T03:29:37.401Z,61.50
2017-12-01T03:32:03.333Z,62.79
2017-12-01T03:34:29.289Z,62.67
2017-12-01T03:36:55.211Z,61.34
2017-12-01T03:39:21.139Z,62.64
2017-12-01T03:41:47.067Z,62.45
2017-12-01T03:44:13.002Z,61.52
2017-12-01T03:46:38.927Z,61.14
2017-12-01T03:49:04.851Z,61.48
2017-12-01T03:51:30.773Z,62.23
2017-12-01T03:53:56.711Z,62.59
2017-12-01T03:56:22.797Z,62.93
2017-12-01T03:58:48.737Z,62.68
2017-12-01T04:01:14.676Z,63.08
2017-12-01T04:03:40.615Z,63.34
2017-12-01T04:06:06.541Z,63.10
2017-12-01T04:08:32.495Z,63.61
2017-12-01T04:10:58.411Z,63.17
2017-12-01T04:13:24.468Z,63.42
2017-12-01T04:15:50.399Z,63.22
2017-12-01T04:18:16.319Z,64.16
2017-12-01T04:20:42.331Z,63.11
2017-12-01T04:23:08.267Z,62.92
2017-12-01T04:25:34.275Z,62.73
2017-12-01T04:28:00.379Z,63.25
2017-12-01T04:30:26.421Z,63.18
2017-12-01T04:32:52.447Z,62.72
2017-12-01T04:35:18.413Z,63.73
2017-12-01T04:37:44.339Z,63.53
2017-12-01T04:40:10.267Z,63.96
2017-12-01T04:42:36.215Z,63.95
2017-12-01T04:45:02.155Z,64.38
2017-12-01T04:47:28.109Z,64.09
2017-12-01T04:49:54.031Z,63.81
2017-12-01T04:52:19.980Z,63.90
2017-12-01T04:54:45.907Z,63.74
2017-12-01T04:57:11.857Z,63.53
2017-12-01T04:59:37.803Z,64.84
2017-12-01T05:02:03.737Z,63.50
2017-12-01T05:04:29.661Z,63.05
2017-12-01T05:06:55.583Z,63.72
2017-12-01T05:09:21.522Z,63.69
2017-12-01T05:11:47.461Z,64.05
2017-12-01T05:14:13.388Z,63.24
2017-12-01T05:16:39.327Z,64.17
2017-12-01T05:19:05.271Z,64.50
2017-12-01T05:21:31.303Z,64.19
2017-12-01T05:23:57.302Z,63.64
2017-12-01T05:26:23.224Z,62.97
2017-12-01T05:28:49.169Z,62.90
2017-12-01T05:31:15.103Z,62.55
2017-12-01T05:33:41.031Z,63.26
2017-12-01T05:36:07.013Z,63.64
2017-12-01T05:38:32.935Z,63.19
2017-12-01T05:40:58.875Z,62.45
2017-12-01T05:43:24.810Z,62.25
2017-12-01T05:45:50.741Z,62.82
2017-12-01T05:48:16.699Z,63.22
2017-12-01T05:50:42.793Z,63.06
2017-12-01T05:53:08.761Z,62.64
2017-12-01T05:55:34.689Z,62.83
2017-12-01T05:58:00.631Z,62.53
2017-12-01T06:00:26.573Z,62.26
2017-12-01T06:02:52.508Z,61.55
2017-12-01T06:05:18.437Z,61.59
2017-12-01T06:07:44.367Z,61.88
2017-12-01T06:10:10.389Z,61.84
2017-12-01T06:12:36.324Z,62.59
2017-12-01T06:15:02.283Z,62.11
2017-12-01T06:17:28.211Z,61.18
2017-12-01T06:19:54.127Z,60.92
2017-12-01T06:22:20.075Z,61.38
2017-12-01T06:24:46.027Z,61.98
2017-12-01T06:27:11.970Z,61.71
2017-12-01T06:29:37.903Z,61.63
2017-12-01T06:32:03.831Z,61.29
2017-12-01T06:34:29.777Z,60.91
2017-12-01T06:36:55.724Z,60.64
2017-12-01T06:39:21.651Z,60.60
2017-12-01T06:41:47.599Z,60.50
2017-12-01T06:44:13.533Z,59.79
2017-12-01T06:46:39.479Z,60.13
2017-12-01T06:49:05.465Z,61.00
2017-12-01T06:51:31.391Z,60.41
2017-12-01T06:53:57.351Z,61.00
2017-12-01T06:56:23.275Z,60.13
2017-12-01T06:58:49.205Z,60.66
2017-12-01T07:01:15.151Z,60.01
2017-12-01T07:03:41.075Z,59.17
2017-12-01T07:06:07.034Z,60.12
2017-12-01T07:08:32.960Z,59.99
2017-12-01T07:10:58.896Z,59.56
2017-12-01T07:13:24.819Z,60.07
2017-12-01T07:15:50.743Z,60.23
2017-12-01T07:18:16.675Z,60.28
2017-12-01T07:20:42.630Z,59.65
2017-12-01T07:23:08.584Z,59.43
2017-12-01T07:25:34.528Z,59.15
2017-12-01T07:28:00.498Z,59.20
2017-12-01T07:30:26.441Z,59.32
2017-12-01T07:32:52.423Z,59.11
2017-12-01T07:35:18.401Z,59.05
2017-12-01T07:37:44.347Z,59.73
2017-12-01T07:40:10.307Z,59.15
2017-12-01T07:42:36.236Z,59.09
2017-12-01T07:45:02.167Z,59.76
2017-12-01T07:47:28.097Z,60.12
2017-12-01T07:49:54.031Z,59.95
2017-12-01T07:52:19.975Z,59.00
2017-12-01T07:54:45.911Z,60.49
2017-12-01T07:57:11.834Z,59.62
2017-12-01T07:59:37.767Z,59.17
2017-12-01T08:02:03.693Z,60.01
2017-12-01T08:04:29.627Z,60.38
2017-12-01T08:06:55.557Z,59.97
2017-12-01T08:09:21.496Z,60.18
2017-12-01T08:11:47.450Z,60.09
2017-12-01T08:14:13.371Z,59.94
2017-12-01T08:16:39.313Z,59.88
2017-12-01T08:19:05.237Z,60.21
2017-12-01T08:21:31.181Z,59.68
2017-12-01T08:23:57.112Z,59.43
2017-12-01T08:26:23.061Z,59.04
2017-12-01T08:28:49.001Z,58.90
2017-12-01T08:31:14.928Z,58.64
2017-12-01T08:33:40.863Z,59.08
2017-12-01T08:36:06.809Z,58.31
2017-12-01T08:38:32.741Z,58.66
2017-12-01T08:40:58.663Z,58.58
2017-12-01T08:43:24.579Z,58.12
2017-12-01T08:45:50.506Z,58.52
2017-12-01T08:48:16.454Z,58.03
2017-12-01T08:50:42.446Z,56.97
2017-12-01T08:53:08.351Z,56.79
2017-12-01T08:55:34.275Z,57.62
2017-12-01T08:58:00.207Z,56.79
2017-12-01T09:00:26.138Z,56.88
2017-12-01T09:02:52.063Z,56.16
2017-12-01T09:05:17.993Z,56.04
2017-12-01T09:07:43.915Z,56.26
2017-12-01T09:10:09.834Z,55.97
2017-12-01T09:12:35.767Z,55.96
2017-12-01T09:15:01.895Z,55.75
2017-12-01T09:17:27.858Z,56.64
2017-12-01T09:19:53.794Z,56.70
2017-12-01T09:22:19.731Z,56.12
2017-12-01T09:24:45.658Z,56.19
2017-12-01T09:27:11.591Z,56.15
2017-12-01T09:29:37.511Z,56.16
2017-12-01T09:32:03.467Z,56.07
2017-12-01T09:34:29.391Z,56.10
2017-12-01T09:36:55.312Z,55.46
2017-12-01T09:39:21.249Z,55.33
2017-12-01T09:41:47.175Z,56.17
2017-12-01T09:44:13.091Z,56.16
2017-12-01T09:46:39.006Z,55.10
2017-12-01T09:49:04.943Z,55.12
2017-12-01T09:51:30.937Z,54.31
2017-12-01T09:53:56.887Z,55.58
2017-12-01T09:56:22.806Z,55.13
2017-12-01T09:58:48.727Z,54.56
2017-12-01T10:01:14.658Z,54.67
2017-12-01T10:03:40.599Z,54.65
2017-12-01T10:06:06.529Z,54.92
2017-12-01T10:08:32.438Z,54.57
2017-12-01T10:10:58.377Z,55.00
2017-12-01T10:13:24.304Z,55.16
2017-12-01T10:15:50.222Z,55.14
2017-12-01T10:18:16.167Z,54.98
2017-12-01T10:20:42.107Z,54.75
2017-12-01T10:23:08.045Z,54.77
2017-12-01T10:25:33.971Z,54.62
2017-12-01T10:27:59.907Z,54.69
2017-12-01T10:30:25.846Z,55.01
2017-12-01T10:32:51.795Z,55.25
2017-12-01T10:35:17.723Z,54.74
2017-12-01T10:37:43.659Z,54.51
2017-12-01T10:40:09.591Z,54.85
2017-12-01T10:42:35.515Z,55.27
2017-12-01T10:45:01.443Z,55.34
2017-12-01T10:47:27.380Z,55.41
2017-12-01T10:49:53.322Z,55.02
2017-12-01T10:52:19.290Z,54.80
2017-12-01T10:54:45.269Z,55.00
2017-12-01T10:57:11.207Z,54.52
2017-12-01T10:59:37.147Z,55.34
2017-12-01T11:02:03.156Z,55.00
2017-12-01T11:04:29.087Z,55.27
2017-12-01T11:06:55.022Z,55.21
2017-12-01T11:09:20.951Z,54.93
2017-12-01T11:11:46.883Z,55.09
2017-12-01T11:14:12.831Z,54.94
2017-12-01T11:16:38.751Z,54.59
2017-12-01T11:19:04.683Z,54.77
2017-12-01T11:21:30.626Z,54.77
2017-12-01T11:23:56.559Z,54.72
2017-12-01T11:26:22.514Z,54.70
2017-12-01T11:28:48.500Z,55.12
2017-12-01T11:31:14.398Z,54.46
2017-12-01T11:33:40.340Z,54.58
2017-12-01T11:36:06.295Z,54.36
2017-12-01T11:38:32.236Z,54.41
2017-12-01T11:40:58.219Z,55.25
2017-12-01T11:43:24.153Z,54.69
2017-12-01T11:45:50.101Z,54.49
2017-12-01T11:48:16.051Z,54.66
2017-12-01T11:50:41.991Z,54.38
2017-12-01T11:53:07.919Z,54.00
2017-12-01T11:55:33.844Z,54.93
2017-12-01T11:57:59.771Z,55.13
2017-12-01T12:00:25.731Z,54.99
2017-12-01T12:02:51.655Z,55.23
2017-12-01T12:05:17.627Z,55.26
2017-12-01T12:07:43.551Z,55.19
2017-12-01T12:10:09.471Z,55.01
2017-12-01T12:12:35.450Z,54.93
2017-12-01T12:15:01.375Z,54.78
2017-12-01T12:17:27.296Z,54.72
2017-12-01T12:19:53.215Z,55.01
2017-12-01T12:22:19.159Z,55.11
2017-12-01T12:24:45.106Z,55.34
2017-12-01T12:27:11.093Z,55.18
2017-12-01T12:29:37.038Z,55.35
2017-12-01T12:32:02.967Z,55.74
2017-12-01T12:34:28.882Z,55.74
2017-12-01T12:36:54.850Z,55.40
2017-12-01T12:39:20.784Z,55.68
2017-12-01T12:41:46.763Z,55.78
2017-12-01T12:44:12.689Z,55.91
2017-12-01T12:46:38.623Z,55.88
2017-12-01T12:49:04.561Z,56.09
2017-12-01T12:51:30.475Z,56.13
2017-12-01T12:53:56.447Z,55.99
2017-12-01T12:56:22.374Z,56.09
2017-12-01T12:58:48.312Z,56.12
2017-12-01T13:01:14.280Z,56.33
2017-12-01T13:03:40.205Z,56.66
2017-12-01T13:06:06.157Z,56.81
2017-12-01T13:08:32.087Z,57.07
2017-12-01T13:10:58.067Z,56.72
2017-12-01T13:13:24.014Z,56.73
2017-12-01T13:15:49.932Z,57.33
2017-12-01T13:18:15.852Z,57.02
2017-12-01T13:20:41.830Z,56.99
2017-12-01T13:23:07.765Z,56.89
2017-12-01T13:25:33.695Z,56.82
2017-12-01T13:27:59.619Z,57.09
2017-12-01T13:30:25.538Z,57.43
2017-12-01T13:32:51.483Z,57.00
2017-12-01T13:35:17.422Z,57.20
2017-12-01T13:37:43.349Z,57.56
2017-12-01T13:40:09.290Z,57.39
2017-12-01T13:42:35.223Z,57.06
2017-12-01T13:45:01.158Z,56.76
2017-12-01T13:47:27.082Z,56.68
2017-12-01T13:49:53.018Z,56.74
2017-12-01T13:52:18.977Z,56.45
2017-12-01T13:54:44.935Z,56.23
2017-12-01T13:57:10.876Z,56.33
2017-12-01T13:59:36.817Z,56.01
2017-12-01T14:02:02.756Z,55.84
2017-12-01T14:04:28.687Z,56.37
2017-12-01T14:06:54.624Z,55.96
2017-12-01T14:09:20.570Z,56.31
2017-12-01T14:11:46.494Z,56.13
2017-12-01T14:14:12.639Z,55.87
2017-12-01T14:16:38.599Z,55.48
2017-12-01T14:19:04.524Z,54.97
2017-12-01T14:21:30.454Z,55.42
2017-12-01T14:23:56.405Z,54.80
2017-12-01T14:26:22.405Z,55.10
2017-12-01T14:28:48.334Z,55.39
2017-12-01T14:31:14.270Z,55.31
2017-12-01T14:33:40.215Z,55.02
2017-12-01T14:36:06.178Z,54.46
2017-12-01T14:38:32.114Z,54.40
2017-12-01T14:40:58.038Z,54.38
2017-12-01T14:43:23.987Z,54.58
2017-12-01T14:45:50.039Z,54.89
2017-12-01T14:48:15.970Z,55.33
2017-12-01T14:50:41.908Z,55.63
2017-12-01T14:53:07.843Z,55.82
2017-12-01T14:55:33.793Z,55.46
2017-12-01T14:57:59.743Z,55.62
2017-12-01T15:00:25.715Z,56.24
2017-12-01T15:02:51.698Z,56.04
2017-12-01T15:05:17.579Z,55.75
2017-12-01T15:07:43.501Z,55.64
2017-12-01T15:10:09.512Z,54.56
2017-12-01T15:12:35.398Z,55.07
2017-12-01T15:15:01.324Z,54.17
2017-12-01T15:17:27.298Z,54.37
2017-12-01T15:19:53.202Z,53.55
2017-12-01T15:22:19.143Z,53.44
2017-12-01T15:24:45.062Z,53.74
2017-12-01T15:27:11.015Z,54.02
2017-12-01T15:29:36.950Z,53.90
2017-12-01T15:32:02.922Z,53.53
2017-12-01T15:34:28.860Z,53.28
2017-12-01T15:36:54.859Z,53.21
2017-12-01T15:39:20.821Z,53.34
2017-12-01T15:41:46.782Z,53.27
2017-12-01T15:44:12.714Z,53.39
2017-12-01T15:46:38.653Z,53.58
2017-12-01T15:49:04.614Z,53.40
2017-12-01T15:51:30.625Z,53.28
2017-12-01T15:53:56.594Z,53.59
2017-12-01T15:56:22.536Z,53.34
2017-12-01T15:58:48.481Z,53.21
2017-12-01T16:01:14.412Z,52.89
2017-12-01T16:03:40.349Z,52.76
2017-12-01T16:06:06.272Z,52.67
2017-12-01T16:08:32.327Z,52.81
2017-12-01T16:10:58.278Z,53.03
2017-12-01T16:13:24.203Z,52.72
2017-12-01T16:15:50.176Z,52.48
2017-12-01T16:18:16.098Z,52.24
2017-12-01T16:20:42.047Z,51.91
2017-12-01T16:23:07.999Z,52.25
2017-12-01T16:25:33.967Z,52.10
2017-12-01T16:27:59.888Z,52.39
2017-12-01T16:30:25.833Z,52.29
2017-12-01T16:32:51.768Z,52.46
2017-12-01T16:35:18.930Z,52.32
2017-12-01T16:37:44.858Z,52.03
2017-12-01T16:40:10.823Z,52.01
2017-12-01T16:42:36.766Z,52.44
2017-12-01T16:45:02.723Z,52.50
2017-12-01T16:47:28.666Z,52.06
2017-12-01T16:49:54.598Z,51.60
2017-12-01T16:52:20.530Z,51.25
2017-12-01T16:54:46.460Z,51.31
2017-12-01T16:57:12.427Z,51.75
2017-12-01T16:59:38.349Z,51.74
2017-12-01T17:02:04.275Z,51.65
2017-12-01T17:04:30.240Z,51.60
2017-12-01T17:06:56.171Z,51.77
2017-12-01T17:09:22.104Z,51.82
2017-12-01T17:11:48.029Z,51.86
2017-12-01T17:14:13.994Z,51.90
2017-12-01T17:16:39.935Z,52.04
2017-12-01T17:19:05.854Z,51.80
2017-12-01T17:21:31.799Z,52.05
2017-12-01T17:23:57.726Z,52.30
2017-12-01T17:26:23.666Z,52.00
2017-12-01T17:28:49.605Z,51.94
2017-12-01T17:31:15.550Z,52.32
2017-12-01T17:33:41.557Z,51.96
2017-12-01T17:36:07.500Z,52.37
2017-12-01T17:38:33.430Z,52.28
2017-12-01T17:40:59.356Z,52.70
2017-12-01T17:43:25.299Z,52.29
2017-12-01T17:45:51.253Z,52.29
2017-12-01T17:48:17.208Z,52.10
2017-12-01T17:50:43.147Z,52.13
2017-12-01T17:53:09.091Z,52.41
2017-12-01T17:55:35.028Z,52.32
2017-12-01T17:58:00.960Z,51.97
2017-12-01T18:00:26.886Z,52.39
2017-12-01T18:02:52.836Z,52.49
2017-12-01T18:05:18.830Z,51.99
2017-12-01T18:07:44.830Z,51.64
2017-12-01T18:10:10.772Z,51.62
2017-12-01T18:12:36.722Z,51.41
2017-12-01T18:15:02.666Z,51.75
2017-12-01T18:17:28.648Z,52.07
2017-12-01T18:19:54.598Z,51.93
2017-12-01T18:22:20.524Z,51.05
2017-12-01T18:24:46.478Z,50.68
2017-12-01T18:27:12.404Z,50.89
2017-12-01T18:29:38.352Z,51.02
2017-12-01T18:32:04.337Z,51.02
2017-12-01T18:34:30.268Z,50.90
2017-12-01T18:36:56.205Z,50.84
2017-12-01T18:39:22.160Z,50.86
2017-12-01T18:41:48.205Z,50.56
2017-12-01T18:44:14.143Z,50.58
2017-12-01T18:46:40.090Z,50.56
2017-12-01T18:49:06.030Z,50.37
2017-12-01T18:51:31.976Z,50.57
2017-12-01T18:53:58.018Z,50.55
2017-12-01T18:56:23.956Z,50.79
2017-12-01T18:58:49.958Z,50.63
2017-12-01T19:01:15.916Z,50.99
2017-12-01T19:03:41.861Z,50.97
2017-12-01T19:06:07.799Z,51.07
2017-12-01T19:08:33.946Z,51.25
2017-12-01T19:10:59.972Z,51.00
2017-12-01T19:13:25.944Z,50.76
2017-12-01T19:15:51.928Z,52.18
2017-12-01T19:18:17.874Z,51.62
2017-12-01T19:20:43.923Z,51.91
2017-12-01T19:23:09.854Z,51.59
2017-12-01T19:25:35.803Z,51.52
2017-12-01T19:28:01.722Z,51.27
2017-12-01T19:30:27.660Z,51.18
2017-12-01T19:32:53.594Z,51.59
2017-12-01T19:35:19.545Z,51.88
2017-12-01T19:37:45.502Z,51.88
2017-12-01T19:40:11.488Z,52.42
2017-12-01T19:42:37.417Z,52.72
2017-12-01T19:45:03.375Z,52.19
2017-12-01T19:47:29.339Z,52.70
2017-12-01T19:49:55.920Z,52.55
2017-12-01T19:52:21.901Z,52.18
2017-12-01T19:54:47.835Z,52.30
2017-12-01T19:57:13.782Z,52.45
2017-12-01T19:59:39.710Z,51.96
2017-12-01T20:02:05.651Z,52.43
2017-12-01T20:04:33.618Z,52.03
2017-12-01T20:06:59.560Z,51.91
2017-12-01T20:09:25.678Z,51.52
2017-12-01T20:11:51.607Z,51.49
2017-12-01T20:14:17.555Z,51.81
2017-12-01T20:16:43.503Z,51.63
2017-12-01T20:19:09.450Z,51.83
2017-12-01T20:21:35.394Z,51.96
2017-12-01T20:24:01.337Z,52.03
2017-12-01T20:26:27.301Z,52.04
2017-12-01T20:28:53.237Z,51.85
2017-12-01T20:31:19.184Z,52.21
2017-12-01T20:33:45.153Z,52.33
2017-12-01T20:36:11.111Z,52.25
2017-12-01T20:38:37.049Z,52.44
2017-12-01T20:41:03.017Z,52.41
2017-12-01T20:43:28.951Z,52.15
2017-12-01T20:45:54.879Z,51.56
2017-12-01T20:48:20.811Z,51.77
2017-12-01T20:50:46.983Z,51.49
2017-12-01T20:53:12.933Z,51.24
2017-12-01T20:55:38.869Z,51.53
2017-12-01T20:58:04.818Z,51.13
2017-12-01T21:00:30.773Z,52.25
2017-12-01T21:02:56.693Z,52.88
2017-12-01T21:05:22.615Z,52.27
2017-12-01T21:07:48.548Z,52.51
2017-12-01T21:10:14.507Z,51.71
2017-12-01T21:12:40.458Z,52.06
2017-12-01T21:15:06.407Z,51.91
2017-12-01T21:17:32.343Z,51.80
2017-12-01T21:19:58.270Z,51.51
2017-12-01T21:22:24.203Z,51.31
2017-12-01T21:24:50.138Z,51.62
2017-12-01T21:27:16.078Z,51.29
2017-12-01T21:29:42.029Z,50.79
2017-12-01T21:32:08.060Z,50.86
2017-12-01T21:34:34.005Z,50.76
2017-12-01T21:36:59.947Z,51.17
2017-12-01T21:39:25.892Z,50.92
2017-12-01T21:41:51.822Z,50.81
2017-12-01T21:44:17.751Z,51.07
2017-12-01T21:46:43.679Z,51.15
2017-12-01T21:49:09.614Z,52.00
2017-12-01T21:51:35.576Z,52.12
2017-12-01T21:54:01.518Z,51.84
2017-12-01T21:56:27.451Z,51.26
2017-12-01T21:58:53.418Z,51.49
2017-12-01T22:01:19.363Z,51.72
2017-12-01T22:03:45.315Z,51.71
2017-12-01T22:06:11.291Z,51.39
2017-12-01T22:08:37.219Z,51.81
2017-12-01T22:11:03.168Z,51.79
2017-12-01T22:13:29.109Z,51.88
2017-12-01T22:15:55.071Z,51.99
2017-12-01T22:18:21.009Z,51.86
2017-12-01T22:20:46.931Z,52.18
2017-12-01T22:23:12.855Z,52.02
2017-12-01T22:25:38.791Z,52.08
2017-12-01T22:28:04.737Z,52.39
2017-12-01T22:30:30.718Z,52.91
2017-12-01T22:32:56.644Z,52.29
2017-12-01T22:35:22.570Z,52.24
2017-12-01T22:37:48.508Z,52.17
2017-12-01T22:40:14.435Z,51.95
2017-12-01T22:42:40.367Z,52.45
2017-12-01T22:45:06.290Z,51.57
2017-12-01T22:47:32.219Z,51.70
2017-12-01T22:49:58.159Z,52.26
2017-12-01T22:52:24.099Z,52.31
2017-12-01T22:54:50.049Z,52.79
2017-12-01T22:57:16.040Z,52.03
2017-12-01T22:59:41.923Z,51.60
2017-12-01T23:02:08.547Z,51.86
2017-12-01T23:04:34.491Z,51.71
2017-12-01T23:07:00.441Z,51.73
2017-12-01T23:09:26.385Z,51.97
2017-12-01T23:11:52.328Z,52.63
2017-12-01T23:14:18.266Z,52.20
2017-12-01T23:16:44.281Z,52.20
2017-12-01T23:19:10.209Z,51.61
2017-12-01T23:21:36.159Z,51.93
2017-12-01T23:24:02.154Z,52.09
2017-12-01T23:26:28.209Z,52.05
2017-12-01T23:28:54.169Z,52.00
2017-12-01T23:31:20.101Z,51.42
2017-12-01T23:33:46.963Z,51.41
2017-12-01T23:36:13.067Z,51.55
2017-12-01T23:38:39.024Z,51.70
2017-12-01T23:41:04.982Z,51.79
2017-12-01T23:43:30.958Z,51.69
2017-12-01T23:45:56.901Z,51.49
2017-12-01T23:48:22.843Z,51.53
2017-12-01T23:50:48.785Z,51.70
2017-12-01T23:53:14.719Z,51.09
2017-12-01T23:55:40.667Z,51.22
2017-12-01T23:58:06.595Z,52.17
